sensor_id;sensor_type;location;lat;lon;timestamp;P1;durP1;ratioP1;P2;durP2;ratioP2
67195;SDS011;54122;53.538;49.366;2023-03-14T00:02:10;7.25;;;2.70;;
67195;SDS011;54122;53.538;49.366;2023-03-14T00:04:37;8.57;;;2.80;;
67195;SDS011;54122;53.538;49.366;2023-03-14T00:07:03;13.80;;;3.30;;
67195;SDS011;54122;53.538;49.366;2023-03-14T00:09:30;14.95;;;5.13;;
67195;SDS011;54122;53.538;49.366;2023-03-14T00:11:56;10.75;;;3.70;;
67195;SDS011;54122;53.538;49.366;2023-03-14T00:14:23;27.77;;;7.93;;
67195;SDS011;54122;53.538;49.366;2023-03-14T00:16:49;12.43;;;4.38;;
67195;SDS011;54122;53.538;49.366;2023-03-14T00:19:15;28.83;;;8.18;;
67195;SDS011;54122;53.538;49.366;2023-03-14T00:21:41;20.98;;;6.45;;
67195;SDS011;54122;53.538;49.366;2023-03-14T00:24:08;16.13;;;3.65;;
67195;SDS011;54122;53.538;49.366;2023-03-14T00:26:34;18.77;;;5.75;;
67195;SDS011;54122;53.538;49.366;2023-03-14T00:29:00;10.10;;;3.63;;
67195;SDS011;54122;53.538;49.366;2023-03-14T00:31:27;10.18;;;2.83;;
67195;SDS011;54122;53.538;49.366;2023-03-14T00:33:53;5.20;;;2.00;;
67195;SDS011;54122;53.538;49.366;2023-03-14T00:36:20;2.80;;;1.40;;
67195;SDS011;54122;53.538;49.366;2023-03-14T00:38:47;8.07;;;3.25;;
67195;SDS011;54122;53.538;49.366;2023-03-14T00:41:22;10.13;;;4.47;;
67195;SDS011;54122;53.538;49.366;2023-03-14T00:43:49;11.98;;;5.38;;
67195;SDS011;54122;53.538;49.366;2023-03-14T00:46:17;17.23;;;8.00;;
67195;SDS011;54122;53.538;49.366;2023-03-14T00:48:44;10.52;;;5.45;;
67195;SDS011;54122;53.538;49.366;2023-03-14T00:51:11;4.10;;;2.22;;
67195;SDS011;54122;53.538;49.366;2023-03-14T00:53:41;3.80;;;1.20;;
67195;SDS011;54122;53.538;49.366;2023-03-14T00:56:09;2.25;;;1.20;;
67195;SDS011;54122;53.538;49.366;2023-03-14T00:58:37;2.28;;;1.00;;
67195;SDS011;54122;53.538;49.366;2023-03-14T01:01:14;3.10;;;1.10;;
67195;SDS011;54122;53.538;49.366;2023-03-14T01:03:42;2.97;;;1.02;;
67195;SDS011;54122;53.538;49.366;2023-03-14T01:06:15;2.22;;;1.00;;
67195;SDS011;54122;53.538;49.366;2023-03-14T01:08:43;2.60;;;0.98;;
67195;SDS011;54122;53.538;49.366;2023-03-14T01:11:11;1.30;;;0.80;;
67195;SDS011;54122;53.538;49.366;2023-03-14T01:13:40;1.55;;;0.68;;
67195;SDS011;54122;53.538;49.366;2023-03-14T01:16:08;3.03;;;0.90;;
67195;SDS011;54122;53.538;49.366;2023-03-14T01:18:35;1.00;;;0.57;;
67195;SDS011;54122;53.538;49.366;2023-03-14T01:21:04;3.40;;;1.02;;
67195;SDS011;54122;53.538;49.366;2023-03-14T01:23:35;3.17;;;1.00;;
67195;SDS011;54122;53.538;49.366;2023-03-14T01:26:01;3.78;;;0.90;;
67195;SDS011;54122;53.538;49.366;2023-03-14T01:28:27;1.50;;;0.80;;
67195;SDS011;54122;53.538;49.366;2023-03-14T01:30:53;2.20;;;0.70;;
67195;SDS011;54122;53.538;49.366;2023-03-14T01:33:20;2.40;;;1.13;;
67195;SDS011;54122;53.538;49.366;2023-03-14T01:35:49;2.08;;;1.08;;
67195;SDS011;54122;53.538;49.366;2023-03-14T01:38:15;5.55;;;1.73;;
67195;SDS011;54122;53.538;49.366;2023-03-14T01:40:42;3.15;;;1.23;;
67195;SDS011;54122;53.538;49.366;2023-03-14T01:43:14;5.22;;;1.67;;
67195;SDS011;54122;53.538;49.366;2023-03-14T01:51:23;3.25;;;1.42;;
67195;SDS011;54122;53.538;49.366;2023-03-14T01:54:14;7.13;;;2.30;;
67195;SDS011;54122;53.538;49.366;2023-03-14T01:56:42;5.20;;;2.08;;
67195;SDS011;54122;53.538;49.366;2023-03-14T01:59:13;5.47;;;1.38;;
67195;SDS011;54122;53.538;49.366;2023-03-14T02:01:41;6.05;;;1.90;;
67195;SDS011;54122;53.538;49.366;2023-03-14T02:04:10;7.18;;;2.15;;
67195;SDS011;54122;53.538;49.366;2023-03-14T02:06:40;5.07;;;1.25;;
67195;SDS011;54122;53.538;49.366;2023-03-14T02:09:21;6.28;;;2.08;;
67195;SDS011;54122;53.538;49.366;2023-03-14T02:11:48;5.70;;;2.38;;
67195;SDS011;54122;53.538;49.366;2023-03-14T02:14:19;3.58;;;1.85;;
67195;SDS011;54122;53.538;49.366;2023-03-14T02:16:53;3.67;;;1.23;;
67195;SDS011;54122;53.538;49.366;2023-03-14T02:19:21;4.32;;;1.30;;
67195;SDS011;54122;53.538;49.366;2023-03-14T02:22:11;7.30;;;1.52;;
67195;SDS011;54122;53.538;49.366;2023-03-14T02:27:30;3.05;;;1.23;;
67195;SDS011;54122;53.538;49.366;2023-03-14T02:32:26;2.00;;;1.08;;
67195;SDS011;54122;53.538;49.366;2023-03-14T02:34:58;3.45;;;1.13;;
67195;SDS011;54122;53.538;49.366;2023-03-14T02:37:30;1.10;;;0.70;;
67195;SDS011;54122;53.538;49.366;2023-03-14T02:40:02;6.55;;;1.08;;
67195;SDS011;54122;53.538;49.366;2023-03-14T02:42:30;3.13;;;1.10;;
67195;SDS011;54122;53.538;49.366;2023-03-14T02:47:34;6.40;;;1.00;;
67195;SDS011;54122;53.538;49.366;2023-03-14T02:50:12;2.60;;;0.95;;
67195;SDS011;54122;53.538;49.366;2023-03-14T02:52:41;3.50;;;1.23;;
67195;SDS011;54122;53.538;49.366;2023-03-14T02:55:08;1.90;;;1.48;;
67195;SDS011;54122;53.538;49.366;2023-03-14T02:57:35;2.05;;;1.48;;
67195;SDS011;54122;53.538;49.366;2023-03-14T03:00:01;3.13;;;2.00;;
67195;SDS011;54122;53.538;49.366;2023-03-14T03:02:32;3.65;;;1.70;;
67195;SDS011;54122;53.538;49.366;2023-03-14T03:04:59;2.25;;;1.38;;
67195;SDS011;54122;53.538;49.366;2023-03-14T03:07:25;1.83;;;1.05;;
67195;SDS011;54122;53.538;49.366;2023-03-14T03:09:51;22.67;;;4.82;;
67195;SDS011;54122;53.538;49.366;2023-03-14T03:12:18;94.00;;;22.20;;
67195;SDS011;54122;53.538;49.366;2023-03-14T03:14:44;139.75;;;45.35;;
67195;SDS011;54122;53.538;49.366;2023-03-14T03:17:11;71.85;;;25.00;;
67195;SDS011;54122;53.538;49.366;2023-03-14T03:19:38;41.13;;;14.82;;
67195;SDS011;54122;53.538;49.366;2023-03-14T03:22:04;56.10;;;21.00;;
67195;SDS011;54122;53.538;49.366;2023-03-14T03:24:31;34.65;;;13.13;;
67195;SDS011;54122;53.538;49.366;2023-03-14T03:26:57;20.50;;;7.15;;
67195;SDS011;54122;53.538;49.366;2023-03-14T03:29:24;9.43;;;3.83;;
67195;SDS011;54122;53.538;49.366;2023-03-14T03:31:50;19.65;;;5.25;;
67195;SDS011;54122;53.538;49.366;2023-03-14T03:34:17;13.48;;;3.75;;
67195;SDS011;54122;53.538;49.366;2023-03-14T03:36:43;5.70;;;2.17;;
67195;SDS011;54122;53.538;49.366;2023-03-14T03:39:10;11.20;;;3.25;;
67195;SDS011;54122;53.538;49.366;2023-03-14T03:41:36;2.58;;;1.20;;
67195;SDS011;54122;53.538;49.366;2023-03-14T03:44:02;2.97;;;1.48;;
67195;SDS011;54122;53.538;49.366;2023-03-14T03:46:29;2.42;;;1.30;;
67195;SDS011;54122;53.538;49.366;2023-03-14T03:48:58;8.82;;;1.83;;
67195;SDS011;54122;53.538;49.366;2023-03-14T03:51:25;3.78;;;1.40;;
67195;SDS011;54122;53.538;49.366;2023-03-14T03:53:52;7.70;;;1.85;;
67195;SDS011;54122;53.538;49.366;2023-03-14T03:56:18;4.40;;;1.60;;
67195;SDS011;54122;53.538;49.366;2023-03-14T03:58:44;7.00;;;1.38;;
67195;SDS011;54122;53.538;49.366;2023-03-14T04:01:11;6.88;;;2.50;;
67195;SDS011;54122;53.538;49.366;2023-03-14T04:03:37;5.68;;;2.63;;
67195;SDS011;54122;53.538;49.366;2023-03-14T04:06:10;3.05;;;1.50;;
67195;SDS011;54122;53.538;49.366;2023-03-14T04:08:38;4.57;;;2.20;;
67195;SDS011;54122;53.538;49.366;2023-03-14T04:11:06;5.47;;;1.50;;
67195;SDS011;54122;53.538;49.366;2023-03-14T04:13:32;12.43;;;4.60;;
67195;SDS011;54122;53.538;49.366;2023-03-14T04:15:58;7.95;;;3.22;;
67195;SDS011;54122;53.538;49.366;2023-03-14T04:18:25;4.43;;;2.00;;
67195;SDS011;54122;53.538;49.366;2023-03-14T04:20:52;14.85;;;4.85;;
67195;SDS011;54122;53.538;49.366;2023-03-14T04:23:19;19.15;;;7.75;;
67195;SDS011;54122;53.538;49.366;2023-03-14T04:25:46;14.02;;;4.45;;
67195;SDS011;54122;53.538;49.366;2023-03-14T04:28:12;4.78;;;2.10;;
67195;SDS011;54122;53.538;49.366;2023-03-14T04:30:38;8.48;;;3.67;;
67195;SDS011;54122;53.538;49.366;2023-03-14T04:33:04;6.18;;;2.78;;
67195;SDS011;54122;53.538;49.366;2023-03-14T04:35:31;5.45;;;1.60;;
67195;SDS011;54122;53.538;49.366;2023-03-14T04:37:57;4.90;;;2.05;;
67195;SDS011;54122;53.538;49.366;2023-03-14T04:40:24;3.53;;;1.30;;
67195;SDS011;54122;53.538;49.366;2023-03-14T04:42:51;5.38;;;2.47;;
67195;SDS011;54122;53.538;49.366;2023-03-14T04:45:17;4.45;;;2.20;;
67195;SDS011;54122;53.538;49.366;2023-03-14T04:47:44;3.13;;;1.30;;
67195;SDS011;54122;53.538;49.366;2023-03-14T04:50:10;9.30;;;1.67;;
67195;SDS011;54122;53.538;49.366;2023-03-14T04:52:36;1.90;;;0.70;;
67195;SDS011;54122;53.538;49.366;2023-03-14T04:55:03;2.85;;;1.20;;
67195;SDS011;54122;53.538;49.366;2023-03-14T04:57:29;2.72;;;0.80;;
67195;SDS011;54122;53.538;49.366;2023-03-14T04:59:55;4.70;;;1.02;;
67195;SDS011;54122;53.538;49.366;2023-03-14T05:02:21;8.20;;;1.20;;
67195;SDS011;54122;53.538;49.366;2023-03-14T05:04:48;13.85;;;0.70;;
67195;SDS011;54122;53.538;49.366;2023-03-14T05:07:14;2.38;;;0.70;;
67195;SDS011;54122;53.538;49.366;2023-03-14T05:09:40;3.20;;;1.00;;
67195;SDS011;54122;53.538;49.366;2023-03-14T05:12:06;2.45;;;1.05;;
67195;SDS011;54122;53.538;49.366;2023-03-14T05:14:33;1.83;;;1.00;;
67195;SDS011;54122;53.538;49.366;2023-03-14T05:16:59;3.08;;;0.90;;
67195;SDS011;54122;53.538;49.366;2023-03-14T05:19:26;1.92;;;0.80;;
67195;SDS011;54122;53.538;49.366;2023-03-14T05:21:52;8.68;;;1.00;;
67195;SDS011;54122;53.538;49.366;2023-03-14T05:24:18;4.28;;;1.80;;
67195;SDS011;54122;53.538;49.366;2023-03-14T05:26:44;4.97;;;1.70;;
67195;SDS011;54122;53.538;49.366;2023-03-14T05:29:11;4.10;;;1.98;;
67195;SDS011;54122;53.538;49.366;2023-03-14T05:31:37;5.50;;;2.13;;
67195;SDS011;54122;53.538;49.366;2023-03-14T05:34:03;5.30;;;2.22;;
67195;SDS011;54122;53.538;49.366;2023-03-14T05:36:29;7.93;;;1.83;;
67195;SDS011;54122;53.538;49.366;2023-03-14T05:38:55;3.60;;;1.92;;
67195;SDS011;54122;53.538;49.366;2023-03-14T05:41:22;2.35;;;0.98;;
67195;SDS011;54122;53.538;49.366;2023-03-14T05:43:48;2.47;;;1.30;;
67195;SDS011;54122;53.538;49.366;2023-03-14T05:46:14;2.60;;;1.30;;
67195;SDS011;54122;53.538;49.366;2023-03-14T05:48:40;2.97;;;1.45;;
67195;SDS011;54122;53.538;49.366;2023-03-14T05:51:07;4.43;;;1.00;;
67195;SDS011;54122;53.538;49.366;2023-03-14T05:53:33;4.18;;;1.50;;
67195;SDS011;54122;53.538;49.366;2023-03-14T05:55:59;9.50;;;1.40;;
67195;SDS011;54122;53.538;49.366;2023-03-14T05:58:26;5.07;;;1.30;;
67195;SDS011;54122;53.538;49.366;2023-03-14T06:00:52;6.65;;;1.67;;
67195;SDS011;54122;53.538;49.366;2023-03-14T06:03:19;7.88;;;1.55;;
67195;SDS011;54122;53.538;49.366;2023-03-14T06:05:45;8.25;;;1.80;;
67195;SDS011;54122;53.538;49.366;2023-03-14T06:08:12;4.90;;;1.73;;
67195;SDS011;54122;53.538;49.366;2023-03-14T06:10:38;5.57;;;2.13;;
67195;SDS011;54122;53.538;49.366;2023-03-14T06:13:04;5.43;;;1.70;;
67195;SDS011;54122;53.538;49.366;2023-03-14T06:15:31;9.30;;;1.73;;
67195;SDS011;54122;53.538;49.366;2023-03-14T06:17:58;11.05;;;1.73;;
67195;SDS011;54122;53.538;49.366;2023-03-14T06:20:25;5.32;;;1.70;;
67195;SDS011;54122;53.538;49.366;2023-03-14T06:22:51;5.13;;;1.63;;
67195;SDS011;54122;53.538;49.366;2023-03-14T06:25:18;7.75;;;2.13;;
67195;SDS011;54122;53.538;49.366;2023-03-14T06:27:44;6.15;;;2.13;;
67195;SDS011;54122;53.538;49.366;2023-03-14T06:30:11;9.20;;;2.08;;
67195;SDS011;54122;53.538;49.366;2023-03-14T06:32:37;7.30;;;2.80;;
67195;SDS011;54122;53.538;49.366;2023-03-14T06:35:04;14.40;;;2.85;;
67195;SDS011;54122;53.538;49.366;2023-03-14T06:37:31;18.83;;;3.20;;
67195;SDS011;54122;53.538;49.366;2023-03-14T06:39:57;10.27;;;2.88;;
67195;SDS011;54122;53.538;49.366;2023-03-14T06:42:23;7.47;;;1.92;;
67195;SDS011;54122;53.538;49.366;2023-03-14T06:44:50;15.10;;;2.58;;
67195;SDS011;54122;53.538;49.366;2023-03-14T06:47:16;12.38;;;2.60;;
67195;SDS011;54122;53.538;49.366;2023-03-14T06:49:43;7.90;;;2.10;;
67195;SDS011;54122;53.538;49.366;2023-03-14T06:52:09;8.23;;;2.17;;
67195;SDS011;54122;53.538;49.366;2023-03-14T06:54:36;7.20;;;2.22;;
67195;SDS011;54122;53.538;49.366;2023-03-14T06:57:02;8.60;;;2.38;;
67195;SDS011;54122;53.538;49.366;2023-03-14T06:59:29;7.10;;;1.50;;
67195;SDS011;54122;53.538;49.366;2023-03-14T07:01:55;5.53;;;1.33;;
67195;SDS011;54122;53.538;49.366;2023-03-14T07:04:22;5.40;;;1.40;;
67195;SDS011;54122;53.538;49.366;2023-03-14T07:06:48;5.40;;;1.70;;
67195;SDS011;54122;53.538;49.366;2023-03-14T07:09:15;10.07;;;1.85;;
67195;SDS011;54122;53.538;49.366;2023-03-14T07:11:42;6.68;;;1.67;;
67195;SDS011;54122;53.538;49.366;2023-03-14T07:14:09;4.00;;;1.50;;
67195;SDS011;54122;53.538;49.366;2023-03-14T07:16:35;4.63;;;1.50;;
67195;SDS011;54122;53.538;49.366;2023-03-14T07:19:02;4.95;;;1.40;;
67195;SDS011;54122;53.538;49.366;2023-03-14T07:21:29;5.88;;;1.77;;
67195;SDS011;54122;53.538;49.366;2023-03-14T07:23:57;7.63;;;1.65;;
67195;SDS011;54122;53.538;49.366;2023-03-14T07:26:23;4.07;;;1.30;;
67195;SDS011;54122;53.538;49.366;2023-03-14T07:28:50;3.42;;;1.33;;
67195;SDS011;54122;53.538;49.366;2023-03-14T07:31:16;4.07;;;1.40;;
67195;SDS011;54122;53.538;49.366;2023-03-14T07:33:43;6.57;;;1.20;;
67195;SDS011;54122;53.538;49.366;2023-03-14T07:36:09;7.90;;;1.10;;
67195;SDS011;54122;53.538;49.366;2023-03-14T07:38:36;4.75;;;1.33;;
67195;SDS011;54122;53.538;49.366;2023-03-14T07:41:03;7.05;;;1.10;;
67195;SDS011;54122;53.538;49.366;2023-03-14T07:43:32;2.22;;;1.27;;
67195;SDS011;54122;53.538;49.366;2023-03-14T07:45:59;2.85;;;1.00;;
67195;SDS011;54122;53.538;49.366;2023-03-14T07:48:25;2.58;;;1.63;;
67195;SDS011;54122;53.538;49.366;2023-03-14T07:50:53;2.22;;;1.10;;
67195;SDS011;54122;53.538;49.366;2023-03-14T07:53:20;6.10;;;1.20;;
67195;SDS011;54122;53.538;49.366;2023-03-14T07:55:47;5.07;;;1.30;;
67195;SDS011;54122;53.538;49.366;2023-03-14T07:58:15;1.83;;;1.08;;
67195;SDS011;54122;53.538;49.366;2023-03-14T08:00:41;2.33;;;1.30;;
67195;SDS011;54122;53.538;49.366;2023-03-14T08:03:08;3.38;;;1.30;;
67195;SDS011;54122;53.538;49.366;2023-03-14T08:05:35;7.43;;;1.10;;
67195;SDS011;54122;53.538;49.366;2023-03-14T08:08:03;5.45;;;1.20;;
67195;SDS011;54122;53.538;49.366;2023-03-14T08:10:30;1.92;;;0.93;;
67195;SDS011;54122;53.538;49.366;2023-03-14T08:12:57;2.97;;;1.10;;
67195;SDS011;54122;53.538;49.366;2023-03-14T08:15:25;4.60;;;1.10;;
67195;SDS011;54122;53.538;49.366;2023-03-14T08:17:52;3.58;;;1.00;;
67195;SDS011;54122;53.538;49.366;2023-03-14T08:20:23;6.50;;;1.02;;
67195;SDS011;54122;53.538;49.366;2023-03-14T08:22:51;2.50;;;1.15;;
67195;SDS011;54122;53.538;49.366;2023-03-14T08:25:20;1.95;;;0.93;;
67195;SDS011;54122;53.538;49.366;2023-03-14T08:27:46;9.65;;;0.90;;
67195;SDS011;54122;53.538;49.366;2023-03-14T08:30:13;4.28;;;2.42;;
67195;SDS011;54122;53.538;49.366;2023-03-14T08:32:41;2.13;;;0.90;;
67195;SDS011;54122;53.538;49.366;2023-03-14T08:35:07;6.40;;;1.20;;
67195;SDS011;54122;53.538;49.366;2023-03-14T08:37:34;5.53;;;1.00;;
67195;SDS011;54122;53.538;49.366;2023-03-14T08:40:02;3.30;;;0.90;;
67195;SDS011;54122;53.538;49.366;2023-03-14T08:42:35;2.15;;;0.90;;
67195;SDS011;54122;53.538;49.366;2023-03-14T08:45:03;3.22;;;0.82;;
67195;SDS011;54122;53.538;49.366;2023-03-14T08:47:30;6.47;;;1.15;;
67195;SDS011;54122;53.538;49.366;2023-03-14T08:49:56;2.97;;;1.10;;
67195;SDS011;54122;53.538;49.366;2023-03-14T08:52:23;4.43;;;0.90;;
67195;SDS011;54122;53.538;49.366;2023-03-14T08:54:49;2.65;;;1.10;;
67195;SDS011;54122;53.538;49.366;2023-03-14T08:57:16;5.78;;;1.90;;
67195;SDS011;54122;53.538;49.366;2023-03-14T08:59:42;3.17;;;1.10;;
67195;SDS011;54122;53.538;49.366;2023-03-14T09:02:11;4.07;;;0.80;;
67195;SDS011;54122;53.538;49.366;2023-03-14T09:04:38;6.13;;;0.82;;
67195;SDS011;54122;53.538;49.366;2023-03-14T09:07:05;1.75;;;0.90;;
67195;SDS011;54122;53.538;49.366;2023-03-14T09:09:32;0.80;;;0.60;;
67195;SDS011;54122;53.538;49.366;2023-03-14T09:11:59;2.00;;;0.90;;
67195;SDS011;54122;53.538;49.366;2023-03-14T09:14:25;4.72;;;1.02;;
67195;SDS011;54122;53.538;49.366;2023-03-14T09:16:52;1.40;;;0.63;;
67195;SDS011;54122;53.538;49.366;2023-03-14T09:19:18;2.60;;;0.80;;
67195;SDS011;54122;53.538;49.366;2023-03-14T09:21:45;3.20;;;1.02;;
67195;SDS011;54122;53.538;49.366;2023-03-14T09:24:11;3.28;;;1.17;;
67195;SDS011;54122;53.538;49.366;2023-03-14T09:26:38;2.08;;;0.98;;
67195;SDS011;54122;53.538;49.366;2023-03-14T09:29:04;2.40;;;0.85;;
67195;SDS011;54122;53.538;49.366;2023-03-14T09:31:31;2.95;;;0.88;;
67195;SDS011;54122;53.538;49.366;2023-03-14T09:34:02;6.28;;;0.80;;
67195;SDS011;54122;53.538;49.366;2023-03-14T09:36:28;0.68;;;0.50;;
67195;SDS011;54122;53.538;49.366;2023-03-14T09:38:55;1.77;;;0.70;;
67195;SDS011;54122;53.538;49.366;2023-03-14T09:41:29;2.30;;;0.63;;
67195;SDS011;54122;53.538;49.366;2023-03-14T09:46:29;4.72;;;0.57;;
67195;SDS011;54122;53.538;49.366;2023-03-14T09:48:57;2.53;;;0.50;;
67195;SDS011;54122;53.538;49.366;2023-03-14T09:51:24;0.60;;;0.50;;
67195;SDS011;54122;53.538;49.366;2023-03-14T09:53:51;1.05;;;0.60;;
67195;SDS011;54122;53.538;49.366;2023-03-14T09:56:23;1.92;;;0.40;;
67195;SDS011;54122;53.538;49.366;2023-03-14T09:58:55;1.40;;;0.57;;
67195;SDS011;54122;53.538;49.366;2023-03-14T10:01:25;0.52;;;0.38;;
67195;SDS011;54122;53.538;49.366;2023-03-14T10:03:54;2.05;;;0.60;;
67195;SDS011;54122;53.538;49.366;2023-03-14T10:06:26;0.40;;;0.30;;
67195;SDS011;54122;53.538;49.366;2023-03-14T10:08:54;0.50;;;0.40;;
67195;SDS011;54122;53.538;49.366;2023-03-14T10:11:22;2.50;;;0.50;;
67195;SDS011;54122;53.538;49.366;2023-03-14T10:14:06;1.65;;;0.50;;
67195;SDS011;54122;53.538;49.366;2023-03-14T10:16:43;1.52;;;0.50;;
67195;SDS011;54122;53.538;49.366;2023-03-14T10:19:15;3.22;;;0.63;;
67195;SDS011;54122;53.538;49.366;2023-03-14T10:21:43;1.13;;;0.55;;
67195;SDS011;54122;53.538;49.366;2023-03-14T10:24:21;0.88;;;0.43;;
67195;SDS011;54122;53.538;49.366;2023-03-14T10:26:53;1.88;;;0.80;;
67195;SDS011;54122;53.538;49.366;2023-03-14T10:29:23;3.67;;;0.68;;
67195;SDS011;54122;53.538;49.366;2023-03-14T10:31:54;2.05;;;0.57;;
67195;SDS011;54122;53.538;49.366;2023-03-14T10:34:27;3.40;;;0.70;;
67195;SDS011;54122;53.538;49.366;2023-03-14T10:36:55;1.00;;;0.60;;
67195;SDS011;54122;53.538;49.366;2023-03-14T10:39:25;2.42;;;1.08;;
67195;SDS011;54122;53.538;49.366;2023-03-14T10:41:53;0.90;;;0.57;;
67195;SDS011;54122;53.538;49.366;2023-03-14T10:44:23;1.48;;;0.52;;
67195;SDS011;54122;53.538;49.366;2023-03-14T10:47:00;1.10;;;0.52;;
67195;SDS011;54122;53.538;49.366;2023-03-14T10:49:35;3.85;;;0.90;;
67195;SDS011;54122;53.538;49.366;2023-03-14T10:54:37;1.85;;;0.90;;
67195;SDS011;54122;53.538;49.366;2023-03-14T10:57:04;2.00;;;0.90;;
67195;SDS011;54122;53.538;49.366;2023-03-14T10:59:38;4.80;;;0.80;;
67195;SDS011;54122;53.538;49.366;2023-03-14T11:02:15;1.40;;;0.80;;
67195;SDS011;54122;53.538;49.366;2023-03-14T11:05:26;3.50;;;0.75;;
67195;SDS011;54122;53.538;49.366;2023-03-14T11:08:08;2.97;;;0.80;;
67195;SDS011;54122;53.538;49.366;2023-03-14T11:10:51;7.80;;;0.90;;
67195;SDS011;54122;53.538;49.366;2023-03-14T11:13:39;3.88;;;1.13;;
67195;SDS011;54122;53.538;49.366;2023-03-14T11:26:59;1.15;;;0.55;;
67195;SDS011;54122;53.538;49.366;2023-03-14T11:32:10;1.77;;;0.70;;
67195;SDS011;54122;53.538;49.366;2023-03-14T11:35:04;8.38;;;0.50;;
67195;SDS011;54122;53.538;49.366;2023-03-14T11:38:05;3.08;;;1.00;;
67195;SDS011;54122;53.538;49.366;2023-03-14T11:40:37;1.52;;;0.60;;
67195;SDS011;54122;53.538;49.366;2023-03-14T11:46:34;1.83;;;0.50;;
67195;SDS011;54122;53.538;49.366;2023-03-14T11:51:34;2.30;;;0.60;;
67195;SDS011;54122;53.538;49.366;2023-03-14T11:54:14;0.73;;;0.40;;
67195;SDS011;54122;53.538;49.366;2023-03-14T11:56:51;5.93;;;0.45;;
67195;SDS011;54122;53.538;49.366;2023-03-14T12:10:41;1.77;;;0.60;;
67195;SDS011;54122;53.538;49.366;2023-03-14T12:13:11;2.80;;;1.20;;
67195;SDS011;54122;53.538;49.366;2023-03-14T12:15:40;2.40;;;0.70;;
67195;SDS011;54122;53.538;49.366;2023-03-14T12:18:18;2.55;;;1.00;;
67195;SDS011;54122;53.538;49.366;2023-03-14T12:20:54;2.17;;;0.95;;
67195;SDS011;54122;53.538;49.366;2023-03-14T12:23:35;2.50;;;0.85;;
67195;SDS011;54122;53.538;49.366;2023-03-14T12:26:12;2.97;;;0.90;;
67195;SDS011;54122;53.538;49.366;2023-03-14T12:28:48;2.50;;;0.85;;
67195;SDS011;54122;53.538;49.366;2023-03-14T12:45:42;1.30;;;0.63;;
67195;SDS011;54122;53.538;49.366;2023-03-14T12:47:54;0.80;;;0.50;;
67195;SDS011;54122;53.538;49.366;2023-03-14T12:50:30;0.85;;;0.50;;
67195;SDS011;54122;53.538;49.366;2023-03-14T12:56:20;2.47;;;0.70;;
67195;SDS011;54122;53.538;49.366;2023-03-14T12:59:21;0.93;;;0.47;;
67195;SDS011;54122;53.538;49.366;2023-03-14T13:01:59;1.33;;;0.50;;
67195;SDS011;54122;53.538;49.366;2023-03-14T13:04:29;1.23;;;0.50;;
67195;SDS011;54122;53.538;49.366;2023-03-14T13:07:01;1.45;;;0.73;;
67195;SDS011;54122;53.538;49.366;2023-03-14T13:12:00;2.28;;;0.60;;
67195;SDS011;54122;53.538;49.366;2023-03-14T13:14:33;0.65;;;0.43;;
67195;SDS011;54122;53.538;49.366;2023-03-14T13:17:02;2.05;;;0.50;;
67195;SDS011;54122;53.538;49.366;2023-03-14T13:19:29;1.83;;;0.50;;
67195;SDS011;54122;53.538;49.366;2023-03-14T13:22:01;0.95;;;0.57;;
67195;SDS011;54122;53.538;49.366;2023-03-14T13:24:32;3.58;;;0.43;;
67195;SDS011;54122;53.538;49.366;2023-03-14T13:27:00;2.15;;;0.40;;
67195;SDS011;54122;53.538;49.366;2023-03-14T13:29:32;0.50;;;0.40;;
67195;SDS011;54122;53.538;49.366;2023-03-14T13:32:02;0.88;;;0.40;;
67195;SDS011;54122;53.538;49.366;2023-03-14T13:34:44;1.35;;;0.32;;
67195;SDS011;54122;53.538;49.366;2023-03-14T13:37:22;2.15;;;0.55;;
67195;SDS011;54122;53.538;49.366;2023-03-14T13:39:51;3.15;;;0.40;;
67195;SDS011;54122;53.538;49.366;2023-03-14T13:42:18;0.88;;;0.40;;
67195;SDS011;54122;53.538;49.366;2023-03-14T13:44:45;2.85;;;0.50;;
67195;SDS011;54122;53.538;49.366;2023-03-14T13:47:14;0.85;;;0.50;;
67195;SDS011;54122;53.538;49.366;2023-03-14T13:49:43;1.85;;;0.50;;
67195;SDS011;54122;53.538;49.366;2023-03-14T13:55:04;0.70;;;0.38;;
67195;SDS011;54122;53.538;49.366;2023-03-14T13:57:44;1.05;;;0.47;;
67195;SDS011;54122;53.538;49.366;2023-03-14T14:00:19;0.93;;;0.50;;
67195;SDS011;54122;53.538;49.366;2023-03-14T14:02:55;2.17;;;0.50;;
67195;SDS011;54122;53.538;49.366;2023-03-14T14:05:28;2.95;;;0.95;;
67195;SDS011;54122;53.538;49.366;2023-03-14T14:07:55;3.00;;;0.30;;
67195;SDS011;54122;53.538;49.366;2023-03-14T14:10:22;1.17;;;0.70;;
67195;SDS011;54122;53.538;49.366;2023-03-14T14:12:49;0.80;;;0.45;;
67195;SDS011;54122;53.538;49.366;2023-03-14T14:15:45;4.05;;;0.60;;
67195;SDS011;54122;53.538;49.366;2023-03-14T14:18:15;1.20;;;0.60;;
67195;SDS011;54122;53.538;49.366;2023-03-14T14:23:17;0.88;;;0.40;;
67195;SDS011;54122;53.538;49.366;2023-03-14T14:25:54;2.40;;;0.52;;
67195;SDS011;54122;53.538;49.366;2023-03-14T14:28:35;0.80;;;0.38;;
67195;SDS011;54122;53.538;49.366;2023-03-14T14:33:59;7.07;;;2.90;;
67195;SDS011;54122;53.538;49.366;2023-03-14T14:36:29;12.40;;;4.50;;
67195;SDS011;54122;53.538;49.366;2023-03-14T14:41:44;2.03;;;0.80;;
67195;SDS011;54122;53.538;49.366;2023-03-14T14:44:12;0.77;;;0.52;;
67195;SDS011;54122;53.538;49.366;2023-03-14T14:46:41;2.08;;;0.63;;
67195;SDS011;54122;53.538;49.366;2023-03-14T14:49:09;1.60;;;0.60;;
67195;SDS011;54122;53.538;49.366;2023-03-14T14:51:42;0.70;;;0.45;;
67195;SDS011;54122;53.538;49.366;2023-03-14T14:54:14;1.17;;;0.50;;
67195;SDS011;54122;53.538;49.366;2023-03-14T14:56:46;2.75;;;0.90;;
67195;SDS011;54122;53.538;49.366;2023-03-14T14:59:26;1.73;;;0.77;;
67195;SDS011;54122;53.538;49.366;2023-03-14T15:02:02;3.30;;;0.93;;
67195;SDS011;54122;53.538;49.366;2023-03-14T15:04:30;1.30;;;0.60;;
67195;SDS011;54122;53.538;49.366;2023-03-14T15:06:57;1.90;;;1.23;;
67195;SDS011;54122;53.538;49.366;2023-03-14T15:09:23;1.50;;;0.40;;
67195;SDS011;54122;53.538;49.366;2023-03-14T15:11:49;3.55;;;0.70;;
67195;SDS011;54122;53.538;49.366;2023-03-14T15:14:16;2.50;;;0.80;;
67195;SDS011;54122;53.538;49.366;2023-03-14T15:16:43;2.00;;;0.77;;
67195;SDS011;54122;53.538;49.366;2023-03-14T15:19:16;0.75;;;0.50;;
67195;SDS011;54122;53.538;49.366;2023-03-14T15:21:46;1.52;;;0.85;;
67195;SDS011;54122;53.538;49.366;2023-03-14T15:24:12;3.65;;;1.05;;
67195;SDS011;54122;53.538;49.366;2023-03-14T15:26:38;2.35;;;1.10;;
67195;SDS011;54122;53.538;49.366;2023-03-14T15:29:05;4.68;;;0.80;;
67195;SDS011;54122;53.538;49.366;2023-03-14T15:31:34;1.90;;;1.10;;
67195;SDS011;54122;53.538;49.366;2023-03-14T15:34:01;1.55;;;0.82;;
67195;SDS011;54122;53.538;49.366;2023-03-14T15:36:28;1.63;;;0.70;;
67195;SDS011;54122;53.538;49.366;2023-03-14T15:38:59;2.95;;;1.08;;
67195;SDS011;54122;53.538;49.366;2023-03-14T15:41:26;2.63;;;1.17;;
67195;SDS011;54122;53.538;49.366;2023-03-14T15:43:53;2.97;;;1.42;;
67195;SDS011;54122;53.538;49.366;2023-03-14T15:46:20;7.88;;;1.55;;
67195;SDS011;54122;53.538;49.366;2023-03-14T15:48:47;1.42;;;0.90;;
67195;SDS011;54122;53.538;49.366;2023-03-14T15:51:16;1.70;;;0.88;;
67195;SDS011;54122;53.538;49.366;2023-03-14T15:53:43;2.38;;;1.40;;
67195;SDS011;54122;53.538;49.366;2023-03-14T15:56:16;2.13;;;1.20;;
67195;SDS011;54122;53.538;49.366;2023-03-14T15:58:44;3.17;;;1.30;;
67195;SDS011;54122;53.538;49.366;2023-03-14T16:01:12;1.80;;;1.05;;
67195;SDS011;54122;53.538;49.366;2023-03-14T16:03:39;1.98;;;0.77;;
67195;SDS011;54122;53.538;49.366;2023-03-14T16:06:05;3.55;;;0.82;;